TimeCST,TemperatureF,Dew PointF,Humidity,Sea Level PressureIn,VisibilityMPH,Wind Direction,Wind SpeedMPH,Gust SpeedMPH,PrecipitationIn,Events,Conditions,WindDirDegrees,DateUTC
12:58 AM,40.6,39.2,95,30.11,10.0,North,4.6,-,N/A,,Clear,360,2014-02-22 06:58:00
1:58 AM,41.9,36.7,82,30.10,10.0,North,2.3,-,N/A,,Clear,10,2014-02-22 07:58:00
2:58 AM,37.4,36.3,96,30.10,10.0,North,4.6,-,N/A,,Clear,360,2014-02-22 08:58:00
3:58 AM,38.1,34.3,86,30.11,10.0,NNE,1.2,-,N/A,,Clear,30,2014-02-22 09:58:00
4:58 AM,37.0,33.3,86,30.13,10.0,NNE,2.3,-,N/A,,Clear,30,2014-02-22 10:58:00
5:58 AM,34.7,32.7,92,30.14,10.0,NNE,2.3,-,N/A,,Clear,30,2014-02-22 11:58:00
6:58 AM,37.0,32.5,84,30.17,10.0,North,2.3,-,N/A,,Clear,350,2014-02-22 12:58:00
7:58 AM,46.0,31.3,56,30.17,10.0,NE,4.6,-,N/A,,Clear,50,2014-02-22 13:58:00
8:58 AM,55.9,29.1,36,30.18,10.0,NE,6.9,-,N/A,,Clear,50,2014-02-22 14:58:00
9:58 AM,61.3,26.4,27,30.17,10.0,ENE,9.2,-,N/A,,Clear,70,2014-02-22 15:58:00
10:58 AM,65.1,28.4,25,30.15,10.0,Variable,5.8,-,N/A,,Clear,0,2014-02-22 16:58:00
11:58 AM,66.7,29.5,25,30.13,10.0,ESE,9.2,-,N/A,,Clear,110,2014-02-22 17:58:00
12:58 PM,69.3,30.2,23,30.10,10.0,Variable,2.3,-,N/A,,Clear,0,2014-02-22 18:58:00
1:58 PM,70.5,31.5,24,30.07,10.0,NE,6.9,-,N/A,,Partly Cloudy,40,2014-02-22 19:58:00
2:58 PM,70.9,32.2,24,30.06,10.0,Calm,Calm,-,N/A,,Clear,0,2014-02-22 20:58:00
3:58 PM,71.8,34.0,25,30.06,10.0,Calm,Calm,-,N/A,,Clear,0,2014-02-22 21:58:00
4:58 PM,67.6,38.1,34,30.05,10.0,South,6.9,-,N/A,,Partly Cloudy,180,2014-02-22 22:58:00
5:58 PM,60.3,39.7,47,30.06,10.0,South,5.8,-,N/A,,Clear,180,2014-02-22 23:58:00
6:58 PM,56.1,40.6,56,30.07,10.0,SSW,2.3,-,N/A,,Clear,210,2014-02-23 00:58:00
7:58 PM,53.1,41.7,65,30.08,10.0,Calm,Calm,-,N/A,,Clear,0,2014-02-23 01:58:00
8:58 PM,50.7,42.8,74,30.08,10.0,Calm,Calm,-,N/A,,Clear,0,2014-02-23 02:58:00
9:58 PM,48.7,43.2,81,30.08,10.0,Calm,Calm,-,N/A,,Partly Cloudy,0,2014-02-23 03:58:00
10:58 PM,48.0,42.8,82,30.07,10.0,Calm,Calm,-,N/A,,Clear,0,2014-02-23 04:58:00
11:58 PM,46.9,42.6,85,30.05,10.0,Calm,Calm,-,N/A,,Clear,0,2014-02-23 05:58:00